aviador You're here:

KEVV Decoded Metar

EVANSVILLE in IN, USA
Report Time2018-07-20 08:32:00
UTC Time2018-07-20 08:58:22
Flight Rules vfr VFR
Wind050° at 06 kt
W.Decomp.*RWY 04: 5.8 kt HW 1.3 kt RCW
RWY 09: 4.8 kt HW 3.6 kt LCW
RWY 36: 3.6 kt HW 4.8 kt RCW
W.Rank050° ranks 20
Current wind is above 050° avg. (5.7)
Visibility9999 m
Phenomena:N/A
Clouds:Few 027 Hf
Expected CloudBase > 2,000 ft AGL from Temp-Dew spread
CeilingNone
Temp23°C (ISA +9)
Dew Point18°C (74% RH)
QNH1012 hPa
Density Alt1,713 ft
Elevation384 ft
Report Wrong Elevation
Raw Report
KEVV 200832Z AUTO 05006KT 10SM FEW027 23/18 A2988 RMK AO2 LTG DSNT
NE AND E T02280183=

Extra information for KEVV:More info

Metar Taf Metar & Taf Last 4 Metars F.Rules Stats Wind Profile Meteogram Temp Stats Airport Information Weather charts Add Link Nearby VenuesMetar ALERT Operation Metar Decoded Social comments

AIRNAV info for KEVV